sensor_id;sensor_type;location;lat;lon;timestamp;pressure;altitude;pressure_sealevel;temperature;humidity
37972;BME280;23794;48.234;8.344;2023-05-11T00:02:18;94118.97;;;8.62;80.76
37972;BME280;23794;48.234;8.344;2023-05-11T00:04:46;94118.22;;;8.58;81.03
37972;BME280;23794;48.234;8.344;2023-05-11T00:07:12;94120.53;;;8.60;81.56
37972;BME280;23794;48.234;8.344;2023-05-11T00:09:39;94116.66;;;8.57;80.91
37972;BME280;23794;48.234;8.344;2023-05-11T00:12:07;94119.38;;;8.57;81.55
37972;BME280;23794;48.234;8.344;2023-05-11T00:14:33;94119.78;;;8.63;81.43
37972;BME280;23794;48.234;8.344;2023-05-11T00:17:00;94126.00;;;8.60;81.26
37972;BME280;23794;48.234;8.344;2023-05-11T00:19:26;94120.94;;;8.65;81.66
37972;BME280;23794;48.234;8.344;2023-05-11T00:21:53;94123.66;;;8.65;80.80
37972;BME280;23794;48.234;8.344;2023-05-11T00:24:20;94113.13;;;8.60;82.28
37972;BME280;23794;48.234;8.344;2023-05-11T00:26:46;94114.69;;;8.65;81.19
37972;BME280;23794;48.234;8.344;2023-05-11T00:29:13;94113.53;;;8.62;81.78
37972;BME280;23794;48.234;8.344;2023-05-11T00:31:39;94110.78;;;8.55;82.31
37972;BME280;23794;48.234;8.344;2023-05-11T00:34:06;94110.03;;;8.51;81.55
37972;BME280;23794;48.234;8.344;2023-05-11T00:36:32;94104.94;;;8.57;82.21
37972;BME280;23794;48.234;8.344;2023-05-11T00:38:59;94102.19;;;8.53;82.93
37972;BME280;23794;48.234;8.344;2023-05-11T00:41:26;94105.31;;;8.59;81.60
37972;BME280;23794;48.234;8.344;2023-05-11T00:43:52;94110.03;;;8.58;82.07
37972;BME280;23794;48.234;8.344;2023-05-11T00:46:19;94097.13;;;8.51;81.53
37972;BME280;23794;48.234;8.344;2023-05-11T00:48:46;94092.44;;;8.45;82.51
37972;BME280;23794;48.234;8.344;2023-05-11T00:51:12;94095.97;;;8.56;81.29
37972;BME280;23794;48.234;8.344;2023-05-11T00:53:42;94099.88;;;8.51;82.43
37972;BME280;23794;48.234;8.344;2023-05-11T00:56:10;94100.28;;;8.54;82.14
37972;BME280;23794;48.234;8.344;2023-05-11T00:58:38;94095.19;;;8.56;82.58
37972;BME280;23794;48.234;8.344;2023-05-11T01:01:05;94099.47;;;8.53;82.22
37972;BME280;23794;48.234;8.344;2023-05-11T01:03:33;94093.25;;;8.45;82.56
37972;BME280;23794;48.234;8.344;2023-05-11T01:06:15;94098.72;;;8.45;82.33
37972;BME280;23794;48.234;8.344;2023-05-11T01:09:08;94098.31;;;8.54;81.45
37972;BME280;23794;48.234;8.344;2023-05-11T01:11:59;94091.28;;;8.60;81.18
37972;BME280;23794;48.234;8.344;2023-05-11T01:14:44;94099.88;;;8.62;81.27
37972;BME280;23794;48.234;8.344;2023-05-11T01:17:21;94092.47;;;8.63;81.09
37972;BME280;23794;48.234;8.344;2023-05-11T01:19:57;94092.06;;;8.50;81.96
37972;BME280;23794;48.234;8.344;2023-05-11T01:31:12;94083.88;;;8.46;81.06
37972;BME280;23794;48.234;8.344;2023-05-11T01:33:50;94084.66;;;8.40;82.46
37972;BME280;23794;48.234;8.344;2023-05-11T01:36:19;94085.47;;;8.47;82.07
37972;BME280;23794;48.234;8.344;2023-05-11T01:38:51;94087.38;;;8.50;80.99
37972;BME280;23794;48.234;8.344;2023-05-11T01:41:22;94081.94;;;8.43;81.47
37972;BME280;23794;48.234;8.344;2023-05-11T01:43:55;94089.72;;;8.48;81.80
37972;BME280;23794;48.234;8.344;2023-05-11T01:46:29;94088.19;;;8.44;81.34
37972;BME280;23794;48.234;8.344;2023-05-11T01:48:58;94087.38;;;8.47;81.81
37972;BME280;23794;48.234;8.344;2023-05-11T01:51:29;94087.78;;;8.49;81.21
37972;BME280;23794;48.234;8.344;2023-05-11T01:53:58;94095.97;;;8.60;80.47
37972;BME280;23794;48.234;8.344;2023-05-11T01:56:26;94086.22;;;8.48;81.96
37972;BME280;23794;48.234;8.344;2023-05-11T01:58:55;94095.97;;;8.56;81.36
37972;BME280;23794;48.234;8.344;2023-05-11T02:01:23;94099.47;;;8.60;81.83
37972;BME280;23794;48.234;8.344;2023-05-11T02:03:50;94090.50;;;8.60;81.73
37972;BME280;23794;48.234;8.344;2023-05-11T02:06:19;94094.00;;;8.57;81.49
37972;BME280;23794;48.234;8.344;2023-05-11T02:08:49;94095.19;;;8.52;81.82
37972;BME280;23794;48.234;8.344;2023-05-11T02:11:17;94095.19;;;8.63;81.00
37972;BME280;23794;48.234;8.344;2023-05-11T02:13:46;94092.84;;;8.65;80.46
37972;BME280;23794;48.234;8.344;2023-05-11T02:16:15;94091.28;;;8.64;80.86
37972;BME280;23794;48.234;8.344;2023-05-11T02:18:43;94084.66;;;8.54;80.55
37972;BME280;23794;48.234;8.344;2023-05-11T02:21:10;94092.84;;;8.50;81.48
37972;BME280;23794;48.234;8.344;2023-05-11T02:23:38;94098.31;;;8.54;81.04
37972;BME280;23794;48.234;8.344;2023-05-11T02:26:07;94097.13;;;8.62;80.21
37972;BME280;23794;48.234;8.344;2023-05-11T02:28:34;94088.19;;;8.47;81.40
37972;BME280;23794;48.234;8.344;2023-05-11T02:31:08;94092.84;;;8.47;80.97
37972;BME280;23794;48.234;8.344;2023-05-11T02:33:42;94092.06;;;8.50;80.93
37972;BME280;23794;48.234;8.344;2023-05-11T02:36:13;94094.41;;;8.51;80.40
37972;BME280;23794;48.234;8.344;2023-05-11T02:38:44;94091.28;;;8.46;81.37
37972;BME280;23794;48.234;8.344;2023-05-11T02:41:16;94081.94;;;8.43;81.14
37972;BME280;23794;48.234;8.344;2023-05-11T02:43:48;94087.00;;;8.48;80.95
37972;BME280;23794;48.234;8.344;2023-05-11T02:46:20;94088.94;;;8.44;81.00
37972;BME280;23794;48.234;8.344;2023-05-11T02:48:55;94087.38;;;8.50;81.42
37972;BME280;23794;48.234;8.344;2023-05-11T02:51:29;94083.09;;;8.46;81.40
37972;BME280;23794;48.234;8.344;2023-05-11T02:53:58;94086.63;;;8.50;80.29
37972;BME280;23794;48.234;8.344;2023-05-11T02:56:28;94087.00;;;8.45;80.96
37972;BME280;23794;48.234;8.344;2023-05-11T02:58:55;94082.72;;;8.47;80.24
37972;BME280;23794;48.234;8.344;2023-05-11T03:01:24;94089.72;;;8.48;80.88
37972;BME280;23794;48.234;8.344;2023-05-11T03:03:56;94083.50;;;8.44;80.77
37972;BME280;23794;48.234;8.344;2023-05-11T03:06:26;94082.72;;;8.40;80.61
37972;BME280;23794;48.234;8.344;2023-05-11T03:08:52;94081.53;;;8.41;80.44
37972;BME280;23794;48.234;8.344;2023-05-11T03:11:19;94082.72;;;8.40;80.41
37972;BME280;23794;48.234;8.344;2023-05-11T03:13:47;94068.69;;;8.34;81.00
37972;BME280;23794;48.234;8.344;2023-05-11T03:16:17;94058.94;;;8.26;81.88
37972;BME280;23794;48.234;8.344;2023-05-11T03:18:48;94066.31;;;8.18;81.45
37972;BME280;23794;48.234;8.344;2023-05-11T03:21:17;94064.00;;;8.20;81.57
37972;BME280;23794;48.234;8.344;2023-05-11T03:23:47;94063.22;;;8.27;80.96
37972;BME280;23794;48.234;8.344;2023-05-11T03:26:16;94069.84;;;8.23;80.90
37972;BME280;23794;48.234;8.344;2023-05-11T03:28:45;94072.56;;;8.19;81.27
37972;BME280;23794;48.234;8.344;2023-05-11T03:31:15;94067.13;;;8.19;81.81
37972;BME280;23794;48.234;8.344;2023-05-11T03:33:41;94059.31;;;8.25;81.19
37972;BME280;23794;48.234;8.344;2023-05-11T03:36:09;94065.16;;;8.27;80.67
37972;BME280;23794;48.234;8.344;2023-05-11T03:38:37;94060.09;;;8.25;80.53
37972;BME280;23794;48.234;8.344;2023-05-11T03:41:09;94060.09;;;8.22;80.38
37972;BME280;23794;48.234;8.344;2023-05-11T03:43:37;94064.00;;;8.17;80.86
37972;BME280;23794;48.234;8.344;2023-05-11T03:46:05;94058.53;;;8.20;80.74
37972;BME280;23794;48.234;8.344;2023-05-11T03:48:32;94064.00;;;8.24;81.33
37972;BME280;23794;48.234;8.344;2023-05-11T03:51:03;94055.81;;;8.20;81.63
37972;BME280;23794;48.234;8.344;2023-05-11T03:53:30;94055.81;;;8.24;80.80
37972;BME280;23794;48.234;8.344;2023-05-11T03:55:57;94052.31;;;8.27;80.76
37972;BME280;23794;48.234;8.344;2023-05-11T03:58:23;94051.91;;;8.22;80.32
37972;BME280;23794;48.234;8.344;2023-05-11T04:00:51;94055.81;;;8.17;80.66
37972;BME280;23794;48.234;8.344;2023-05-11T04:03:18;94054.25;;;8.19;80.23
37972;BME280;23794;48.234;8.344;2023-05-11T04:05:44;94054.63;;;8.14;80.23
37972;BME280;23794;48.234;8.344;2023-05-11T04:08:11;94056.19;;;8.04;80.67
37972;BME280;23794;48.234;8.344;2023-05-11T04:10:38;94047.59;;;8.06;80.46
37972;BME280;23794;48.234;8.344;2023-05-11T04:13:05;94058.13;;;8.11;81.29
37972;BME280;23794;48.234;8.344;2023-05-11T04:15:31;94050.75;;;8.15;81.27
37972;BME280;23794;48.234;8.344;2023-05-11T04:17:58;94041.41;;;8.24;81.05
37972;BME280;23794;48.234;8.344;2023-05-11T04:20:24;94046.06;;;8.27;80.68
37972;BME280;23794;48.234;8.344;2023-05-11T04:22:51;94048.41;;;8.28;80.24
37972;BME280;23794;48.234;8.344;2023-05-11T04:25:18;94049.19;;;8.18;82.09
37972;BME280;23794;48.234;8.344;2023-05-11T04:27:45;94044.13;;;8.20;81.42
37972;BME280;23794;48.234;8.344;2023-05-11T04:30:11;94053.47;;;8.26;80.57
37972;BME280;23794;48.234;8.344;2023-05-11T04:32:38;94050.75;;;8.30;80.76
37972;BME280;23794;48.234;8.344;2023-05-11T04:35:05;94041.00;;;8.36;81.10
37972;BME280;23794;48.234;8.344;2023-05-11T04:37:35;94046.84;;;8.45;80.95
37972;BME280;23794;48.234;8.344;2023-05-11T04:40:04;94051.50;;;8.45;79.86
37972;BME280;23794;48.234;8.344;2023-05-11T04:42:37;94060.88;;;8.33;80.78
37972;BME280;23794;48.234;8.344;2023-05-11T04:45:09;94062.81;;;8.40;80.30
37972;BME280;23794;48.234;8.344;2023-05-11T04:47:36;94053.47;;;8.33;80.08
37972;BME280;23794;48.234;8.344;2023-05-11T04:50:04;94060.88;;;8.36;80.54
37972;BME280;23794;48.234;8.344;2023-05-11T04:52:33;94056.97;;;8.41;80.52
37972;BME280;23794;48.234;8.344;2023-05-11T04:55:00;94072.19;;;8.46;81.20
37972;BME280;23794;48.234;8.344;2023-05-11T04:57:27;94065.53;;;8.54;80.41
37972;BME280;23794;48.234;8.344;2023-05-11T04:59:53;94062.06;;;8.54;80.33
37972;BME280;23794;48.234;8.344;2023-05-11T05:02:20;94063.63;;;8.55;80.96
37972;BME280;23794;48.234;8.344;2023-05-11T05:04:46;94071.41;;;8.49;80.18
37972;BME280;23794;48.234;8.344;2023-05-11T05:07:13;94069.06;;;8.58;79.76
37972;BME280;23794;48.234;8.344;2023-05-11T05:09:40;94071.00;;;8.61;80.50
37972;BME280;23794;48.234;8.344;2023-05-11T05:12:10;94057.34;;;8.61;80.60
37972;BME280;23794;48.234;8.344;2023-05-11T05:14:36;94060.88;;;8.55;81.26
37972;BME280;23794;48.234;8.344;2023-05-11T05:17:03;94057.75;;;8.63;80.14
37972;BME280;23794;48.234;8.344;2023-05-11T05:19:31;94059.31;;;8.64;79.97
37972;BME280;23794;48.234;8.344;2023-05-11T05:21:58;94064.75;;;8.72;80.40
37972;BME280;23794;48.234;8.344;2023-05-11T05:24:25;94062.41;;;8.77;80.69
37972;BME280;23794;48.234;8.344;2023-05-11T05:26:51;94059.28;;;8.82;80.62
37972;BME280;23794;48.234;8.344;2023-05-11T05:29:18;94054.59;;;8.83;79.93
37972;BME280;23794;48.234;8.344;2023-05-11T05:31:45;94071.78;;;8.80;80.46
37972;BME280;23794;48.234;8.344;2023-05-11T05:34:11;94069.41;;;8.82;81.00
37972;BME280;23794;48.234;8.344;2023-05-11T05:36:42;94069.03;;;8.87;80.75
37972;BME280;23794;48.234;8.344;2023-05-11T05:39:09;94066.69;;;8.86;78.89
37972;BME280;23794;48.234;8.344;2023-05-11T05:41:38;94071.75;;;8.91;79.27
37972;BME280;23794;48.234;8.344;2023-05-11T05:44:07;94066.25;;;9.05;78.98
37972;BME280;23794;48.234;8.344;2023-05-11T05:46:34;94060.00;;;9.05;78.39
37972;BME280;23794;48.234;8.344;2023-05-11T05:49:00;94061.56;;;9.06;78.61
37972;BME280;23794;48.234;8.344;2023-05-11T05:51:28;94070.13;;;9.11;79.35
37972;BME280;23794;48.234;8.344;2023-05-11T05:53:56;94071.28;;;9.18;78.99
37972;BME280;23794;48.234;8.344;2023-05-11T05:56:22;94069.34;;;9.22;78.63
37972;BME280;23794;48.234;8.344;2023-05-11T05:58:49;94068.53;;;9.21;78.12
37972;BME280;23794;48.234;8.344;2023-05-11T06:01:16;94077.53;;;9.25;78.08
37972;BME280;23794;48.234;8.344;2023-05-11T06:03:43;94070.06;;;9.37;78.08
37972;BME280;23794;48.234;8.344;2023-05-11T06:06:13;94076.69;;;9.32;77.69
37972;BME280;23794;48.234;8.344;2023-05-11T06:08:39;94079.47;;;9.21;77.82
37972;BME280;23794;48.234;8.344;2023-05-11T06:11:06;94079.50;;;9.10;77.59
37972;BME280;23794;48.234;8.344;2023-05-11T06:13:33;94068.94;;;9.20;78.20
37972;BME280;23794;48.234;8.344;2023-05-11T06:15:59;94067.72;;;9.31;77.08
37972;BME280;23794;48.234;8.344;2023-05-11T06:18:31;94072.84;;;9.19;77.34
37972;BME280;23794;48.234;8.344;2023-05-11T06:20:59;94067.00;;;9.17;77.66
37972;BME280;23794;48.234;8.344;2023-05-11T06:23:27;94072.88;;;9.04;76.38
37972;BME280;23794;48.234;8.344;2023-05-11T06:25:54;94077.22;;;8.94;77.25
37972;BME280;23794;48.234;8.344;2023-05-11T06:28:21;94079.50;;;9.07;78.58
37972;BME280;23794;48.234;8.344;2023-05-11T06:30:55;94083.41;;;9.02;78.07
37972;BME280;23794;48.234;8.344;2023-05-11T06:33:25;94078.31;;;9.15;77.77
37972;BME280;23794;48.234;8.344;2023-05-11T06:35:53;94078.72;;;9.13;77.73
37972;BME280;23794;48.234;8.344;2023-05-11T06:38:20;94077.53;;;9.22;77.29
37972;BME280;23794;48.234;8.344;2023-05-11T06:40:51;94081.00;;;9.29;78.20
37972;BME280;23794;48.234;8.344;2023-05-11T06:43:17;94075.56;;;9.19;76.34
37972;BME280;23794;48.234;8.344;2023-05-11T06:45:46;94077.13;;;9.20;76.97
37972;BME280;23794;48.234;8.344;2023-05-11T06:48:15;94077.91;;;9.24;76.55
37972;BME280;23794;48.234;8.344;2023-05-11T06:50:42;94078.31;;;9.15;76.48
37972;BME280;23794;48.234;8.344;2023-05-11T06:53:11;94077.56;;;9.14;77.63
37972;BME280;23794;48.234;8.344;2023-05-11T06:55:38;94074.00;;;9.25;77.28
37972;BME280;23794;48.234;8.344;2023-05-11T06:58:05;94073.19;;;9.39;76.42
37972;BME280;23794;48.234;8.344;2023-05-11T07:00:31;94071.63;;;9.45;76.33
37972;BME280;23794;48.234;8.344;2023-05-11T07:02:58;94072.03;;;9.43;74.72
37972;BME280;23794;48.234;8.344;2023-05-11T07:05:24;94077.06;;;9.52;75.67
37972;BME280;23794;48.234;8.344;2023-05-11T07:07:51;94077.88;;;9.45;75.17
37972;BME280;23794;48.234;8.344;2023-05-11T07:10:18;94074.38;;;9.38;75.27
37972;BME280;23794;48.234;8.344;2023-05-11T07:12:45;94082.53;;;9.49;75.15
37972;BME280;23794;48.234;8.344;2023-05-11T07:15:11;94079.72;;;9.63;75.09
37972;BME280;23794;48.234;8.344;2023-05-11T07:17:38;94076.88;;;9.85;74.73
37972;BME280;23794;48.234;8.344;2023-05-11T07:20:05;94083.09;;;9.96;74.51
37972;BME280;23794;48.234;8.344;2023-05-11T07:22:31;94083.84;;;9.97;73.83
37972;BME280;23794;48.234;8.344;2023-05-11T07:24:59;94075.25;;;10.02;72.51
37972;BME280;23794;48.234;8.344;2023-05-11T07:27:26;94076.78;;;10.06;71.69
37972;BME280;23794;48.234;8.344;2023-05-11T07:29:52;94075.13;;;10.20;73.11
37972;BME280;23794;48.234;8.344;2023-05-11T07:32:19;94078.66;;;10.17;71.88
37972;BME280;23794;48.234;8.344;2023-05-11T07:34:45;94080.16;;;10.25;71.88
37972;BME280;23794;48.234;8.344;2023-05-11T07:37:12;94082.91;;;10.25;72.08
37972;BME280;23794;48.234;8.344;2023-05-11T07:39:39;94078.88;;;10.40;73.86
37972;BME280;23794;48.234;8.344;2023-05-11T07:42:06;94076.50;;;10.46;72.93
37972;BME280;23794;48.234;8.344;2023-05-11T07:44:32;94083.13;;;10.49;72.58
37972;BME280;23794;48.234;8.344;2023-05-11T07:46:59;94081.94;;;10.50;72.87
37972;BME280;23794;48.234;8.344;2023-05-11T07:49:25;94080.78;;;10.51;72.38
37972;BME280;23794;48.234;8.344;2023-05-11T07:52:08;94082.41;;;10.37;73.11
37972;BME280;23794;48.234;8.344;2023-05-11T07:54:35;94089.06;;;10.40;73.47
37972;BME280;23794;48.234;8.344;2023-05-11T07:57:05;94082.03;;;10.39;72.07
37972;BME280;23794;48.234;8.344;2023-05-11T07:59:32;94083.13;;;10.49;73.20
37972;BME280;23794;48.234;8.344;2023-05-11T08:01:58;94077.53;;;10.63;73.24
37972;BME280;23794;48.234;8.344;2023-05-11T08:04:26;94080.31;;;10.60;72.35
37972;BME280;23794;48.234;8.344;2023-05-11T08:06:53;94077.09;;;10.68;72.56
37972;BME280;23794;48.234;8.344;2023-05-11T08:09:21;94075.91;;;10.69;73.55
37972;BME280;23794;48.234;8.344;2023-05-11T08:11:48;94081.25;;;10.84;73.10
37972;BME280;23794;48.234;8.344;2023-05-11T08:14:19;94080.47;;;10.87;72.34
37972;BME280;23794;48.234;8.344;2023-05-11T08:16:46;94082.09;;;10.81;73.22
37972;BME280;23794;48.234;8.344;2023-05-11T08:19:17;94081.06;;;10.60;72.18
37972;BME280;23794;48.234;8.344;2023-05-11T08:21:43;94079.50;;;10.63;72.92
37972;BME280;23794;48.234;8.344;2023-05-11T08:24:12;94076.81;;;10.59;72.84
37972;BME280;23794;48.234;8.344;2023-05-11T08:26:38;94080.47;;;10.87;73.51
37972;BME280;23794;48.234;8.344;2023-05-11T08:29:06;94076.69;;;10.73;72.20
37972;BME280;23794;48.234;8.344;2023-05-11T08:31:33;94074.13;;;10.94;71.56
37972;BME280;23794;48.234;8.344;2023-05-11T08:33:59;94079.03;;;11.17;71.34
37972;BME280;23794;48.234;8.344;2023-05-11T08:36:26;94081.88;;;11.06;71.02
37972;BME280;23794;48.234;8.344;2023-05-11T08:38:53;94083.75;;;11.13;70.97
37972;BME280;23794;48.234;8.344;2023-05-11T08:41:24;94082.38;;;10.90;70.01
37972;BME280;23794;48.234;8.344;2023-05-11T08:43:51;94089.88;;;10.86;70.94
37972;BME280;23794;48.234;8.344;2023-05-11T08:46:23;94091.22;;;10.63;70.83
37972;BME280;23794;48.234;8.344;2023-05-11T08:48:54;94082.78;;;10.88;72.02
37972;BME280;23794;48.234;8.344;2023-05-11T08:51:22;94082.75;;;10.92;70.56
37972;BME280;23794;48.234;8.344;2023-05-11T08:53:48;94076.00;;;11.04;70.05
37972;BME280;23794;48.234;8.344;2023-05-11T08:56:15;94078.34;;;11.05;70.42
37972;BME280;23794;48.234;8.344;2023-05-11T08:58:42;94072.94;;;10.95;69.50
37972;BME280;23794;48.234;8.344;2023-05-11T09:01:09;94077.34;;;10.85;68.96
37972;BME280;23794;48.234;8.344;2023-05-11T09:03:38;94079.22;;;10.99;70.02
37972;BME280;23794;48.234;8.344;2023-05-11T09:06:06;94072.13;;;11.01;69.72
37972;BME280;23794;48.234;8.344;2023-05-11T09:08:34;94069.66;;;11.14;70.12
37972;BME280;23794;48.234;8.344;2023-05-11T09:11:03;94072.19;;;11.32;69.26
37972;BME280;23794;48.234;8.344;2023-05-11T09:13:30;94069.97;;;11.20;69.26
37972;BME280;23794;48.234;8.344;2023-05-11T09:15:57;94072.06;;;11.43;70.05
37972;BME280;23794;48.234;8.344;2023-05-11T09:18:25;94070.69;;;11.62;69.07
37972;BME280;23794;48.234;8.344;2023-05-11T09:20:52;94070.34;;;11.57;67.58
37972;BME280;23794;48.234;8.344;2023-05-11T09:23:24;94073.00;;;11.64;67.96
37972;BME280;23794;48.234;8.344;2023-05-11T09:25:51;94069.06;;;11.65;68.33
37972;BME280;23794;48.234;8.344;2023-05-11T09:28:23;94065.16;;;11.66;67.58
37972;BME280;23794;48.234;8.344;2023-05-11T09:30:52;94069.53;;;11.60;67.67
37972;BME280;23794;48.234;8.344;2023-05-11T09:33:23;94066.88;;;11.83;68.23
37972;BME280;23794;48.234;8.344;2023-05-11T09:35:50;94064.63;;;12.06;67.27
37972;BME280;23794;48.234;8.344;2023-05-11T09:38:17;94063.31;;;12.14;67.56
37972;BME280;23794;48.234;8.344;2023-05-11T09:40:54;94061.44;;;12.35;67.59
37972;BME280;23794;48.234;8.344;2023-05-11T09:43:26;94059.06;;;12.64;66.47
37972;BME280;23794;48.234;8.344;2023-05-11T09:45:56;94071.63;;;13.09;64.93
37972;BME280;23794;48.234;8.344;2023-05-11T09:48:29;94056.75;;;13.06;62.92
37972;BME280;23794;48.234;8.344;2023-05-11T09:50:59;94058.50;;;12.49;64.40
37972;BME280;23794;48.234;8.344;2023-05-11T09:53:33;94061.28;;;12.18;66.91
37972;BME280;23794;48.234;8.344;2023-05-11T09:56:00;94062.53;;;11.86;65.44
37972;BME280;23794;48.234;8.344;2023-05-11T09:58:43;94057.84;;;11.52;66.87
37972;BME280;23794;48.234;8.344;2023-05-11T10:01:10;94059.28;;;11.29;68.75
37972;BME280;23794;48.234;8.344;2023-05-11T10:03:50;94065.53;;;11.33;69.07
37972;BME280;23794;48.234;8.344;2023-05-11T10:06:19;94064.09;;;11.56;69.03
37972;BME280;23794;48.234;8.344;2023-05-11T10:08:46;94056.72;;;11.80;69.05
37972;BME280;23794;48.234;8.344;2023-05-11T10:11:13;94056.63;;;12.15;67.79
37972;BME280;23794;48.234;8.344;2023-05-11T10:13:42;94052.97;;;12.25;66.62
37972;BME280;23794;48.234;8.344;2023-05-11T10:16:11;94052.19;;;12.25;65.29
37972;BME280;23794;48.234;8.344;2023-05-11T10:18:38;94052.25;;;12.49;64.79
37972;BME280;23794;48.234;8.344;2023-05-11T10:21:05;94055.88;;;12.66;64.68
37972;BME280;23794;48.234;8.344;2023-05-11T10:23:33;94055.75;;;12.73;63.91
37972;BME280;23794;48.234;8.344;2023-05-11T10:26:03;94048.53;;;12.83;63.23
37972;BME280;23794;48.234;8.344;2023-05-11T10:28:30;94055.38;;;12.94;63.34
37972;BME280;23794;48.234;8.344;2023-05-11T10:30:57;94046.81;;;13.13;63.33
37972;BME280;23794;48.234;8.344;2023-05-11T10:33:24;94047.41;;;13.24;63.75
37972;BME280;23794;48.234;8.344;2023-05-11T10:35:52;94038.25;;;13.31;62.23
37972;BME280;23794;48.234;8.344;2023-05-11T10:38:19;94033.72;;;13.40;60.61
37972;BME280;23794;48.234;8.344;2023-05-11T10:40:50;94033.50;;;13.51;61.86
37972;BME280;23794;48.234;8.344;2023-05-11T10:43:36;94033.44;;;13.35;60.96
37972;BME280;23794;48.234;8.344;2023-05-11T10:48:56;94031.56;;;12.64;61.22
37972;BME280;23794;48.234;8.344;2023-05-11T10:54:31;94032.53;;;12.77;62.77
37972;BME280;23794;48.234;8.344;2023-05-11T10:57:14;94029.34;;;12.79;62.38
37972;BME280;23794;48.234;8.344;2023-05-11T11:00:10;94031.75;;;13.01;65.12
37972;BME280;23794;48.234;8.344;2023-05-11T11:02:41;94029.78;;;13.21;64.45
37972;BME280;23794;48.234;8.344;2023-05-11T11:05:07;94020.53;;;13.12;62.69
37972;BME280;23794;48.234;8.344;2023-05-11T11:10:43;94022.13;;;13.09;61.70
37972;BME280;23794;48.234;8.344;2023-05-11T11:13:15;94018.69;;;13.05;62.62
37972;BME280;23794;48.234;8.344;2023-05-11T11:18:26;94008.97;;;13.20;61.67
37972;BME280;23794;48.234;8.344;2023-05-11T11:20:54;94002.91;;;13.29;59.74
37972;BME280;23794;48.234;8.344;2023-05-11T11:23:40;94010.00;;;13.87;59.89
37972;BME280;23794;48.234;8.344;2023-05-11T11:26:08;94007.41;;;13.96;59.04
37972;BME280;23794;48.234;8.344;2023-05-11T11:31:26;93995.38;;;14.89;60.51
37972;BME280;23794;48.234;8.344;2023-05-11T11:33:53;94003.13;;;14.94;56.71
37972;BME280;23794;48.234;8.344;2023-05-11T11:39:46;93987.72;;;14.64;58.11
37972;BME280;23794;48.234;8.344;2023-05-11T11:42:32;93994.00;;;14.64;55.72
37972;BME280;23794;48.234;8.344;2023-05-11T11:45:25;93989.84;;;14.73;56.89
37972;BME280;23794;48.234;8.344;2023-05-11T11:48:10;93983.06;;;14.94;57.56
37972;BME280;23794;48.234;8.344;2023-05-11T11:50:42;93990.59;;;15.06;55.91
37972;BME280;23794;48.234;8.344;2023-05-11T11:53:10;93986.88;;;15.13;54.51
37972;BME280;23794;48.234;8.344;2023-05-11T11:55:45;93976.84;;;15.19;54.03
37972;BME280;23794;48.234;8.344;2023-05-11T12:03:36;93962.88;;;15.39;50.88
37972;BME280;23794;48.234;8.344;2023-05-11T12:06:07;93966.72;;;15.29;50.66
37972;BME280;23794;48.234;8.344;2023-05-11T12:08:35;93961.09;;;14.74;51.24
37972;BME280;23794;48.234;8.344;2023-05-11T12:11:03;93960.25;;;15.06;55.54
37972;BME280;23794;48.234;8.344;2023-05-11T12:13:31;93949.66;;;15.34;53.65
37972;BME280;23794;48.234;8.344;2023-05-11T12:16:16;93960.38;;;15.45;53.32
37972;BME280;23794;48.234;8.344;2023-05-11T12:18:55;93954.31;;;15.08;53.36
37972;BME280;23794;48.234;8.344;2023-05-11T12:21:27;93965.13;;;14.86;55.35
37972;BME280;23794;48.234;8.344;2023-05-11T12:24:04;93963.59;;;14.68;55.41
37972;BME280;23794;48.234;8.344;2023-05-11T12:26:32;93969.41;;;14.41;55.75
37972;BME280;23794;48.234;8.344;2023-05-11T12:29:10;93986.97;;;14.47;59.64
37972;BME280;23794;48.234;8.344;2023-05-11T12:31:42;93982.13;;;14.01;59.23
37972;BME280;23794;48.234;8.344;2023-05-11T12:34:16;93991.88;;;13.49;61.56
37972;BME280;23794;48.234;8.344;2023-05-11T12:36:45;93993.00;;;13.32;59.32
37972;BME280;23794;48.234;8.344;2023-05-11T12:41:43;93991.66;;;12.79;62.70
37972;BME280;23794;48.234;8.344;2023-05-11T12:44:10;93997.28;;;12.49;62.53
37972;BME280;23794;48.234;8.344;2023-05-11T12:46:37;93997.84;;;12.40;63.77
37972;BME280;23794;48.234;8.344;2023-05-11T12:49:04;93995.09;;;12.12;67.51
37972;BME280;23794;48.234;8.344;2023-05-11T12:52:03;93995.44;;;12.14;68.39
37972;BME280;23794;48.234;8.344;2023-05-11T12:54:38;93989.72;;;12.05;67.02
37972;BME280;23794;48.234;8.344;2023-05-11T12:57:27;93991.16;;;12.37;66.91
37972;BME280;23794;48.234;8.344;2023-05-11T13:02:31;93995.88;;;12.40;67.82
37972;BME280;23794;48.234;8.344;2023-05-11T13:04:58;93989.06;;;12.21;67.58
37972;BME280;23794;48.234;8.344;2023-05-11T13:07:26;93990.38;;;12.13;64.37
37972;BME280;23794;48.234;8.344;2023-05-11T13:09:59;93980.34;;;12.03;66.66
37972;BME280;23794;48.234;8.344;2023-05-11T13:12:29;93992.22;;;11.96;68.51
37972;BME280;23794;48.234;8.344;2023-05-11T13:15:08;93995.88;;;12.13;68.83
37972;BME280;23794;48.234;8.344;2023-05-11T13:17:40;93995.00;;;12.20;67.76
37972;BME280;23794;48.234;8.344;2023-05-11T13:20:33;93991.28;;;12.30;70.60
37972;BME280;23794;48.234;8.344;2023-05-11T13:23:07;93991.34;;;12.26;70.27
37972;BME280;23794;48.234;8.344;2023-05-11T13:25:50;93986.34;;;12.21;70.54
37972;BME280;23794;48.234;8.344;2023-05-11T13:28:21;93986.34;;;12.21;70.23
37972;BME280;23794;48.234;8.344;2023-05-11T13:30:49;93989.75;;;12.29;69.92
37972;BME280;23794;48.234;8.344;2023-05-11T13:33:17;93981.22;;;12.23;69.00
37972;BME280;23794;48.234;8.344;2023-05-11T13:35:44;93981.88;;;12.04;68.72
37972;BME280;23794;48.234;8.344;2023-05-11T13:38:11;93981.72;;;11.91;70.17
37972;BME280;23794;48.234;8.344;2023-05-11T13:40:38;93975.31;;;11.70;70.85
37972;BME280;23794;48.234;8.344;2023-05-11T13:43:05;93985.91;;;11.72;70.71
37972;BME280;23794;48.234;8.344;2023-05-11T13:45:31;93983.66;;;11.63;71.62
37972;BME280;23794;48.234;8.344;2023-05-11T13:47:58;93987.09;;;11.71;70.40
37972;BME280;23794;48.234;8.344;2023-05-11T13:50:25;93976.50;;;11.69;72.17
37972;BME280;23794;48.234;8.344;2023-05-11T13:52:52;93975.91;;;11.58;72.15
37972;BME280;23794;48.234;8.344;2023-05-11T13:55:19;93967.66;;;11.58;72.01